หน้าหลัก
METAR-TAF:

METAR-TAF

ท่าอากาศยาน :

Rørvik, นอร์เวย์

ละติจูด: 64-50N, ลองจิจูด: 011-09E, ความสูง: 4 ม.

การสังเกตสภาพอากาศปัจจุบัน

รายงานได้ทำขึ้นเมื่อ 23 นาทีที่แล้ว ณ เวลา 00:50 UTC
ลม 2 นอตจากเหนือ/ตะวันออกเฉียงเหนือ
อุณหภูมิ 10°C
ความชื้น 93%
ความกดอากาศ 1017 hPa
ทัศนวิสัย 10 กม. หรือมากกว่า

METAR: ENRM 200050Z AUTO 03002KT 9999 NCD 10/09 Q1017

เวลา: 03:13 (01:13 UTC)

การพยากรณ์

รายงานได้ทำขึ้นเมื่อ 11 ชั่วโมงและ 13 นาทีที่แล้ว ณ เวลา 14:00 UTC
การพยากรณ์มีผลตั้งแต่วันที่ 19 ณ เวลา 15 UTC จนถึงวันที่ 19 ณ เวลา 22 UTC
ลม 5 นอตจากเหนือ/ตะวันออกเฉียงเหนือ
ทัศนวิสัย 10 กม. หรือมากกว่า
มีเมฆน้อยที่ความสูง 2000 ฟุต
มีเมฆกระจายเป็นบางส่วนที่ความสูง 3000 ฟุต

TAF: ENRM 191400Z 1915/1922 03005KT 9999 FEW020 SCT030

สังเกตการณ์สภาพอากาศและพยากรณ์อากาศของสนามบินมากกว่า 4000 แห่ง (รายงาน METAR และ TAF).

สถานีที่ดูได้จะแสดงไว้ด้วยจุดสีเหลืองและสีแดงบนแผนที่.

เลื่อนเมาส์ไปเหนือจุดเพื่อดูชื่อสถานี.

แล้วคลิกเพื่อดูสังเกตการณ์และการพยากรณ์สภาพอากาศ.

ในการเปลี่ยนแผนที่: คลิกที่ปุ่มสีเขียวที่มีกากบาทสีดำเพื่อซูมเข้า; ที่ปุ่มสีเขียวที่มีขีดเพื่อซูมออก; หรือที่ลูกศรสีเขียวเพื่อไปยังแผนที่ที่อยู่ติดกัน.


METAR-TAF: